NCAR-RAP Real-Time Weather Data

Output produced by METARs form (16 August 2018  19:24 UTC)
found at http://weather.rap.ucar.edu/surface/
 
RODN 161856Z AUTO 13007KT 10SM CLR 26/24 A2963 RMK AO2 SLP039 T02580244
RODN 161756Z AUTO 16007KT 10SM FEW010 25/24 A2962 RMK AO2 SLP035 60011 T02520240 10270 20247 57021
RODN 161744Z AUTO 16007KT 10SM SCT010 25/24 A2963 RMK AO2 SLP039
RODN 161734Z AUTO 16006KT 10SM BKN010 25/24 A2963 RMK AO2 SLP039
RODN 161656Z AUTO 16007KT 10SM CLR 25/23 A2963 RMK AO2 RAE1556RAB01E14DZB14E19 SLP039 P0000 T02470233
RODN 161616Z AUTO 13007KT 10SM CLR 25/24 A2965 RMK AO2 RAE1556RAB01E14DZB14 SLP045
RODN 161601Z AUTO 15008KT 10SM -RA SCT045 SCT060 25/24 A2966 RMK AO2 RAE1556RAB01 SLP049
RODN 161557Z AUTO 15006KT 10SM SCT045 BKN060 25/24 A2966 RMK AO2 RAE56 SLP049
RODN 161556Z AUTO 15005KT 10SM -RA SCT045 BKN060 25/24 A2966 RMK AO2 RAE04RAB29 SLP049 P0004 T02480237
RODN 161529Z AUTO 17006KT 10SM -RA BKN032 BKN050 25/24 A2968 RMK AO2 RAE04RAB29 SLP056
RODN 161514Z AUTO 17007KT 10SM BKN031 25/24 A2968 RMK AO2 RAE04 SLP056
RODN 161504Z AUTO 18007KT 10SM FEW008 BKN029 BKN040 25/24 A2968 RMK AO2 RAE04 SLP056
RODN 161456Z AUTO 16006KT 7SM -RA FEW001 FEW008 BKN031 OVC043 25/24 A2968 RMK AO2 RAB1359E06DZB06E09RAB10 SLP056 P0007 60007 T02470236 402880247 53009
RODN 161450Z AUTO 16008KT 8SM -RA FEW008 BKN036 OVC043 25/24 A2969 RMK AO2 RAB1359E06DZB06E09RAB10 SLP059
RODN 161440Z AUTO 17007KT 10SM -RA FEW002 SCT008 BKN025 OVC043 25/24 A2968 RMK AO2 RAB1359E06DZB06E09RAB10 SLP056
RODN 161430Z AUTO 18008KT 8SM -RA FEW002 SCT011 BKN024 OVC043 25/24 A2968 RMK AO2 RAB1359E06DZB06E09RAB10 CIG 020V025 SLP056
RODN 161420Z AUTO 19011KT 5SM -RA BR FEW001 SCT011 BKN018 OVC025 25/24 A2968 RMK AO2 RAB1359E06DZB06E09RAB10 CIG 018V025 BKN V SCT SLP056
RODN 161410Z AUTO 17006KT 10SM -RA FEW012 SCT018 OVC025 25/24 A2968 RMK AO2 RAB1359E06DZB06E09RAB10 OVC V BKN SLP056
RODN 161409Z AUTO 17007KT 10SM FEW012 SCT018 BKN025 OVC031 25/24 A2968 RMK AO2 RAB1359E06DZB06E09 SLP056
RODN 161359Z AUTO 19009KT 10SM -RA SCT014 SCT022 BKN029 BKN041 25/24 A2968 RMK AO2 RAB59 CIG 017V030 SLP056
RODN 161356Z AUTO 20011KT 10SM FEW011 BKN017 BKN028 BKN041 26/24 A2968 RMK AO2 CIG 017V070 BKN017 V SCT SLP056 T02570239
RODN 161316Z AUTO 15011G17KT 10SM SCT013 BKN065 27/25 A2966 RMK AO2 SLP049
RODN 161306Z AUTO 13009KT 10SM SCT013 BKN022 27/25 A2966 RMK AO2 CIG 014V022 SLP049
RODN 161256Z AUTO 13009G16KT 10SM BKN014 27/25 A2966 RMK AO2 SLP049 T02670249
RODN 161156Z AUTO 12013KT 10SM FEW010 FEW023 27/24 A2965 RMK AO2 SLP045 60001 T02700244 10288 20269 52019
RODN 161056Z AUTO 14008KT 10SM FEW016 FEW090 27/25 A2964 RMK AO2 SLP042 T02720248
RODN 160956Z AUTO 15010KT 10SM CLR 27/25 A2962 RMK AO2 SLP035 T02730247
RODN 160856Z AUTO 14011KT 10SM CLR 28/25 A2960 RMK AO2 SLP028 60001 T02830247 55001
RODN 160756Z AUTO 16014G19KT 10SM CLR 29/25 A2958 RMK AO2 SLP021 T02850245
RODN 160656Z 15010KT 10SM SCT060 OVC019 27/25 A2959 RMK AO2A RAB20E21DZB26E43 SLP025 P0001 T02710247
RODN 160556Z 17010KT 10SM FEW003 SCT013 BKN180 OVC200 27/25 A2960 RMK AO2A RAB27E54 SLP029 P0000 60004 T02690247 10281 20266 58004
RODN 160545Z AUTO 17010KT 10SM CLR 27/25 A2960 RMK AO2 RAB27 SLP029
RODN 160534Z AUTO 17010KT 10SM -RA FEW015 27/25 A2960 RMK AO2 RAB27 SLP029
RODN 160530Z AUTO 17015KT 10SM CLR 27/25 A2960 RMK AO2 RAB27 SLP029
RODN 160527Z AUTO 17013KT 10SM -RA FEW200 27/25 A2960 RMK AO2 RAB27 SLP029
RODN 160456Z 18014KT 10SM SCT015 SCT130 SCT150 BKN180 OVC200 27/24 A2961 RMK AO2A SLP032 T02730243
RODN 160356Z 18015G20KT 10SM SCT013 BKN120 OVC210 28/25 A2961 RMK AO2A RAB0255E04 SLP032 P0000 T02770251
RODN 160258Z 17013G18KT 10SM SCT010 BKN110 OVC190 27/25 A2961 RMK AO2A RAB55 SLP032
RODN 160257Z 18012KT 10SM -RA SCT010 BKN110 OVC190 27/25 A2961 RMK AO2A RAB55 SLP032
RODN 160256Z 17014KT 10SM SCT010 BKN110 OVC190 27/25 A2961 RMK AO2A RAB38E49 SLP032 P0001 60004 T02690251 57002
RODN 160249Z 18012KT 9SM SCT010 BKN110 OVC190 27/25 A2961 RMK AO2A RAB38E49 SLP032
RODN 160238Z 17013KT 10SM -RA SCT020 BKN120 OVC190 27/25 A2961 RMK AO2A RAB38 SLP032
RODN 160156Z 17014G18KT 10SM FEW020 OVC170 27/25 A2962 RMK AO2A RAB0056E12 SLP035 P0001 T02730253
RODN 160116Z 17017G21KT 9SM SCT012 BKN030 27/25 A2962 RMK AO2A RAB0056E12 SLP035
RODN 160106Z 16014G20KT 8SM BKN013 27/25 A2962 RMK AO2A RAB0056 SLP035
RODN 160056Z 16013KT 10SM SCT007 BKN020 27/25 A2962 RMK AO2A RAB19E34RAB54 SLP035 P0002 T02700254
RODN 152356Z 17015G21KT 10SM SCT020 OVC035 27/25 A2962 RMK AO2A RAE47 SLP035 P0006 60041 70208 T02670251 10268 20253 53004
RODN 152355Z 17015G21KT 10SM SCT020 OVC035 27/25 A2962 RMK RAE47 SLP035
RODN 152335Z 16012KT 7SM SCT020 OVC035 27/25 A2962 RMK AO2A SLP035
RODN 152256Z 14017G22KT 5SM -RA BR SCT020 OVC038 27/25 A2962 RMK AO2A RAB2156E24RAB29 SLP035 P0006 T02680252
RODN 152242Z 15013G23KT 6SM -RA SCT020 OVC038 27/25 A2962 RMK AO2A RAB2156E24RAB29 SLP035
RODN 152224Z 14017G23KT 6SM BR BKN020 OVC038 27/25 A2962 RMK AO2A RAB2156E24 SLP035
RODN 152216Z 14015G21KT 5SM -RA BR BKN020 OVC038 27/25 A2962 RMK AO2A RAB2156 SLP035
RODN 152204Z 13020KT 6SM -RA SCT018 BKN023 OVC038 27/25 A2961 RMK AO2A RAB2156 SLP032
RODN 152156Z 13012G21KT 8SM SCT023 OVC038 27/25 A2960 RMK AO2A RAE15DZB15E25RAB30E51RAB54 SLP029 P0003 T02660250
RODN 152151Z 13017G21KT 7SM SCT023 OVC038 27/25 A2961 RMK AO2A RAE15DZB15E25RAB30E51 SLP032
RODN 152137Z 14013G19KT 6SM -RA SCT029 OBC038 26/25 A2961 RMK AO2A RAE15DZB15E25RAB30 SLP032
RODN 152119Z 13013G18KT 7SM OVC038 26/25 A2961 RMK AO2A RAE15DZB15 SLP032
RODN 152106Z COR AUTO 13012KT 7SM -RA SCT004 OVC038 26/25 A2960 RMK AO2 SLP029 COR 2119
RODN 152056Z AUTO 14012G20KT 5SM -RA BR BKN004 26/25 A2961 RMK AO2 CIG 004V007 SLP032 P0015 60026 T02630250 55004
RODN 152036Z AUTO 14016G19KT 4SM RA BR BKN007 26/25 A2961 RMK AO2 SLP032
RODN 152026Z AUTO 14011G21KT 5SM -RA BR BKN007 26/25 A2961 RMK AO2 BKN V OVC SLP032
RODN 152006Z 14013G21KT 4SM -RA BR BKN006 26/25 A2960 RMK AO2A SLP029
RODN 151956Z 13015G19KT 8SM -RA FEW007 BKN020 26/25 A2960 RMK AO2A PK WND 12026/13 RAB1859E20RAB49 SLP029 P0002 T02600247
RODN 151921Z 13017G26KT 10SM FEW010 BKN020 26/25 A2961 RMK AO2A RAB1859E20 SLP032
RODN 151856Z 15019G28KT 4SM BR SCT005 OVC010 25/24 A2961 RMK AO2A PK WND 15028/47 RAE05RAB09E45 SLP032 P0009 T02530237
RODN 151756Z 16012G20KT 6SM -RA BR FEW003 BKN010 26/24 A2962 RMK AO2A PK WND 16029/11 RAB01E15RAB22 SLP035 P0009 60009 T02550241 10274 20253 53001
RODN 151732Z 14013G23KT 6SM -RA BR SCT004 BKN010 26/24 A2961 RMK AO2A RAB01E15RAB22 SLP032
RODN 151716Z 16021G29KT 8SM -RA FEW010 BKN020 27/24 A2961 RMK AO2A RAB01E15 SLP032
RODN 151656Z 15014G19KT 10SM FEW015 BKN020 27/25 A2961 RMK AO2A SLP032 T02730247
RODN 151606Z COR 15015G21KT 10SM FEW015 BKN020 27/25 A2962 RMK AO2 SLP035 COR 1624
RODN 151556Z 16014G21KT 10SM FEW015 BKN020 27/25 A2961 RMK AO2A SLP032 T02690245
RODN 151456Z 17010KT 10SM FEW010 BKN015 27/25 A2962 RMK AO2A RAB45E46 SLP035 P0000 60000 T02680252 402770252 50003
RODN 151356Z 16014G23KT 10SM FEW015 BKN020 27/25 A2962 RMK AO2A PK WND 16027/00 SLP035 T02690249
RODN 151256Z 16019G27KT 10SM FEW010 BKN020 27/25 A2961 RMK AO2A PK WND 16027/48 SLP032 T02670249
RODN 151246Z 16016G24KT 10SM FEW007 BKN020 27/25 A2961 RMK AO2A SLP032
RODN 151226Z AUTO 16014G24KT 3SM BR SCT008 SCT015 26/25 A2961 RMK AO2 SLP032
RODN 151156Z 15015G20KT 10SM FEW010 BKN015 27/25 A2961 RMK AO2A PK WND 16029/15 SLP032 60049 T02650247 10269 20252 52010
RODN 151056Z 16020G25KT 10SM FEW010 BKN015 26/24 A2960 RMK AO2A PK WND 17029/21 RAB0956E10 SLP029 P0001 T02620244
RODN 150956Z 17015G24KT 7SM SCT008 BKN015 26/24 A2959 RMK AO2A PK WND 19036/27 RAB34E44RAB52 SLP025 P0008 T02580244
RODN 150934Z 18025G31KT 6SM -RA BR BKN008 BKN015 26/24 A2959 RMK AO2A RAB34 SLP025
RODN 150926Z AUTO 18022G31KT 4SM BR SCT008 BKN013 26/24 A2959 RMK AO2 SLP025
RODN 150908Z 18017G25KT 7SM BKN008 26/24 A2958 RMK TWR VIS 4 1/2 CIG 006V008 SLP022
RODN 150906Z 18016G25KT 7SM BKN008 26/24 A2958 RMK AO2A TWR VIS 1 CIG 006V008 SLP022
RODN 150856Z 17018G28KT 1 7/8SM BR OVC006 25/24 A2958 RMK AO2A TWR VIS 1 PK WND 18038/28 VIS 1 1/8V1 7/8 RAB25E44 CIG 001 RWY05 SLP022 P0024 60040 T02540243 52010
RODN 150846Z 16017G28KT 1 1/8SM R23/6000FT BR BKN005 25/24 A2957 RMK AO2A TWR VIS 1 VIS 5/8V1 1/8 RAB25E44 CIG 001 RWY05 SLP019
RODN 150844Z 17021G28KT 1SM R23/4000VP6000FT BR BKN005 25/24 A2957 RMK AO2A TWR VIS 1 RAB25E44 CIG 001 RWY05 SLP019
RODN 150834Z 18022G38KT 3/4SM R23/3500V5000FT +RA BR BKN005 26/24 A2958 RMK AO2A TWR VIS 1 VIS 3/4V9 RAB25 SLP022
RODN 150827Z COR 17023G29KT 1/2SM RA SCT006 OVC025 27/25 A2957 RMK AO2A TWR VIS 1 RAB25 SLP018 COR 0830
RODN 150826Z 17021G27KT 3/4SM RA FEW008 27/25 A2957 RMK AO2A TWR VIS 1 RAB25 SLP018
RODN 150825Z 17019G27KT 3/4SM -RA FEW008 27/25 A2957 RMK AO2A TWR VIS 1 TRAB25 SLP018
RODN 150822Z 16018G26KT 10SM CLR 27/25 A2956 RMK TWR VIS 1 SLP015
RODN 150816Z 16020G25KT 10SM SCT016 OVC035 27/25 A2956 RMK AO2A SLP015
RODN 150756Z 16019G29KT 9SM BKN017 26/24 A2955 RMK AO2A TWR VIS 2 3/4 PK WND 18038/24 RAB0656E19RAB43 SLP012 P0004 T02620244
RODN 150719Z 17027G36KT 9SM FEW008 SCT012 BKN014 26/24 A2955 RMK AO2A TWR VIS 2 3/4 RAB0656E19 SLP012
RODN 150717Z 17024G31KT 9SM -RA FEW008 SCT012 BKN014 26/24 A2955 RMK AO2A TWR VIS 2 3/4 RAB0656 SLP012
RODN 150707Z AUTO 18019G29KT 4SM -RA BR SCT008 SCT012 26/25 A2955 RMK AO2 RAB0656 SLP012
RODN 150657Z 18022G30KT 4SM RA BR BKN013 26/25 A2955 RMK AO2A TWR VIS 2 3/4 RAB56 SLP012
RODN 150656Z 17024G30KT 5SM BR FEW007 BKN010 26/25 A2955 RMK AO2A WR VIS 2 3/4 PK WND 17032/0558 RAB19E44 SLP012 P0012 T02620248
RODN 150654Z 17022G26KT 5SM BR SCT007 BKN012 26/25 A2955 RMK TWR VIS 2 3/4 RAB19E44 SLP012
RODN 150644Z 17016G31KT 8SM SCT007 BKN013 26/25 A2955 RMK AO2A TWR VIS 1 RAB19E44 SLP012 $
RODN 150639Z 17019G31KT 7SM -RA SCT007 SCT013 26/25 A2955 RMK AO2A TWR VIS 1 RAB19 SLP012 $
RODN 150629Z 17020G29KT 4SM -RA BR BKN007 26/25 A2954 RMK AO2A TWR VIS 1 RAB19 SLP008 $
RODN 150619Z 16021G32KT 1 3/4SM -RA BR OVC008 26/25 A2954 RMK AO2A TWR VIS 1 RAB19 CIG 008V010 SLP008 $
RODN 150615Z 16021G31KT 1 3/4SM BR OVC010 26/24 A2954 RMK AO2A TWR VIS 1 VIS 1 1/2V2 SLP008 $
RODN 150605Z 16023G32KT 1 1/2SM BR OVC010 26/25 A2955 RMK AO2A TWR VIS 1 VIS 1 1/8V1 7/8 SLP012 $
RODN 150556Z 16025G31KT 2SM BR OVC009 26/25 A2955 RMK AO2A TWR VIS 1 AO2A PK WND 18037/54 VIS 2V2 1/2 RAE0456RAB0457E06RAB14E27RAB38E53 CIG 002 RWY05 SLP012 P0033 60108 T02610248 10267 20259 50001 $
RODN 150553Z 16019G31KT 2 1/4SM BR OVC009 26/25 A2954 RMK AO2A TWR VIS 1 AO2A VIS 2V2 1/2 RAE0456RAB0457E06RAB14E27RAB38E53 CIG 002 RWY05 SLP008 $
RODN 150548Z 16021G32KT 2 1/2SM -RA BR OVC009 26/25 A2954 RMK AO2A TWR VIS 1 AO2A VIS 1 7/8V2 1/2 RAE0456RAB0457E06RAB14E27RAB38 CIG 002 RWY05 SLP008 $
RODN 150538Z 16023G30KT 1 7/8SM -RA BR OVC008 26/25 A2955 RMK AO2A TWR VIS 1 AO2A RAE0456RAB0457E06RAB14E27RAB38 CIG 001 RWY05 SLP012 $
RODN 150537Z 16025G30KT 2SM BR OVC008 26/25 A2955 RMK AO2A TWR VIS 1AO2A VIS 1 1/2V2 RAE0456RAB0457E06RAB14E27 CIG 001 RWY05 SLP012 $
RODN 150527Z 16024G35KT 1 3/8SM BR OVC008 26/25 A2955 RMK AO2A TWR VIS 1 AO2A VIS 1 3/8V2 1/2 RAE0456RAB0457E06RAB14E27 OVC V BKN CIG 001 RWY05 SLP012 $
RODN 150524Z 16024G35KT 1 3/8SM -RA BR OVC008 26/25 A2955 RMK AO2A TWR VIS 1 AO2A VIS 1 3/8V3 RAE0456RAB0457E06RAB14 OVC V BKN CIG 001 RWY05 SLP012 $
RODN 150514Z 17015G23KT 3SM -RA BR BKN008 26/25 A2955 RMK AO2A TWR VIS 1 AO2A RAE0456RAB0457E06RAB14 BKN V OVC CIG 001 RWY05 SLP012 $
RODN 150506Z 17017G23KT 2 1/2SM BR BKN009 26/25 A2955 RMK AO2A VIS 2 1/4V3 RAE0456RAB0457E06 CIG 001 RWY05 SLP012 $
RODN 150458Z 17020G26KT 2 1/4SM RA BR BKN009 26/25 A2955 RMK AO2A VIS 1 1/4V2 1/4 RAE56RAB57 CIG 001 RWY05 SLP012 $
RODN 150457Z 17022G26KT 2SM BR BKN009 26/25 A2955 RMK AO2A VIS 1 1/4V2 RAE56 SLP012 $
RODN 150456Z 17020G24KT 1 3/4SM -RA BR BKN009 26/25 A2955 RMK AO2A PK WND 19030/34 VIS 1 1/8V1 3/4 SLP012 P0047 T02630252 $
RODN 150446Z COR 18018G29KT 1 1/8SM R23/6000FT +RA BR BKN009 26/25 A2955 RMK TWR VIS 1 AO2A VIS 1V5 CIG 007V009 BKN V SCT SLP012 $ COR 0448
RODN 150445Z 18018G29KT 1SM R23/2800VP6000FT +RA BR BKN009 26/25 A2955 RMK AO2A VIS 1V6 CIG 007V009 BKN V SCT SLP012 $
RODN 150436Z 18019G27KT 2 1/2SM +RA BR SCT009 BKN020 27/25 A2955 RMK AO2A TWR VIS 1 AO2A VIS 2 3/4 RWY05 SLP012 $
RODN 150433Z COR 18019G27KT 4SM -RA BKN008 27/25 A2956 RMK TWR VIS 1 PRESRR SLP015 $ COR 0435
RODN 150426Z 17017G22KT 10SM -RA SCT008 OVC010 27/25 A2954 RMK AO2A SLP008 $
RODN 150407Z 17011KT 4SM -RA BR BKN008 26/25 A2955 RMK BKN V SCT SLP012 $
RODN 150356Z 16010G17KT 3SM -RA BR SCT008 26/25 A2955 RMK AO2A RAE28DZB28E29RAB29 SLP012 P0009 T02630252 $
RODN 150353Z 16012KT 3SM -RA BR BKN008 26/25 A2955 RMK AO2A RAE28DZB28E29RAB29 BKN V SCT SLP012 $
RODN 150345Z COR 16012KT 4SM RA BKN007 26/25 A2955 RMK TWR VIS 2 RAE28DZB28E29RAB29 SLP012 $ COR 0347
RODN 150333Z 16013G18KT 9SM -RA SCT007 BKN030 27/25 A2955 RMK AO2A RAE28DZB28E29RAB29 SLP012 $
RODN 150323Z 17011KT 4SM -RA BR OVC006 26/25 A2955 RMK AO2A SLP012 $
RODN 150313Z 17012KT 7SM RA SCT005 BKN031 26/25 A2954 RMK AO2A SLP008 $
RODN 150304Z 17010KT 8SM SCT008 BKN030 26/25 A2954 RMK AO2A SLP008 $
RODN 150256Z 17015KT 9SM -RA SCT007 SCT010 BKN030 26/25 A2954 RMK AO2A RAE19RAB30 SLP008 P0008 60019 T02610250 52010 $
RODN 150250Z 18013G20KT 8SM -RA SCT007 BKN030 26/25 A2954 RMK AO2A RAE19RAB30 SLP008 $
RODN 150240Z 17016KT 4SM -RA BR SCT008 OVC025 26/25 A2954 RMK AO2A RAE19RAB30 SLP008 $
RODN 150230Z 18017G24KT 8SM -RA SCT008 OVC025 26/25 A2954 RMK AO2A RAE19RAB30 SLP008 $
RODN 150219Z AUTO 17013G19KT 10SM FEW004 26/25 A2954 RMK AO2 RAE19 SLP008 $
RODN 150206Z AUTO 16016G22KT 10SM -RA SCT007 26/25 A2954 RMK AO2 SLP008 $
RODN 150156Z AUTO 17014G24KT 5SM -RA BR OVC008 26/25 A2954 RMK AO2 CIG 008V010 CIG 007 RWY05 SLP008 P0011 T02610250 $
RODN 150146Z AUTO 18015G21KT 1 3/8SM -RA BR OVC010 26/26 A2954 RMK AO2 OVC V BKN CIG 007 RWY05 SLP008 $
RODN 150136Z 16012KT 1 1/8SM R23/6000FT +RA BR BKN010 26/25 A2953 RMK AO2A VIS 1V1 3/4 BKN V SCT SLP005 $
RODN 150132Z 17008KT 1SM R23/4500VP6000FT +RA BR BKN010 26/25 A2953 RMK AO2A VIS 1V2 1/2 BKN V SCT SLP005 $
RODN 150126Z 16007KT 2SM +RA BR BKN007 26/25 A2953 RMK AO2A VIS 2V2 3/4 VIS 1 RWY05 SLP005 $
RODN 150116Z 15009KT 2 3/4SM -RA BR FEW007 26/25 A2952 RMK AO2A VIS 2 3/4V4 SLP001
RODN 150106Z 14011KT 4SM -RA BR BKN007 27/25 A2952 RMK AO2A SLP001
RODN 150056Z 14014G18KT 3SM -RA BR BKN007 26/25 A2952 RMK AO2A SLP001 P0000 T02640253
RODN 150053Z 14011G18KT 2 3/4SM -RA BR BKN007 26/25 A2951 RMK AO2A VIS 2 1/2V4 SLP998
RODN 150043Z 14013KT 4SM RA BR BKN007 26/25 A2951 RMK AO2A BKN V SCT SLP998
RODN 150026Z 14011KT 3SM -RA BR SCT007 BKN013 26/25 A2952 RMK AO2A SLP001
RODN 150016Z 14014KT 5SM -RA BR SCT007 BKN025 26/25 A2952 RMK AO2A SLP001
RODN 150006Z 14013G22KT 4SM -RA BR SCT007 BKN013 26/25 A2952 RMK AO2A SLP001
RODN 142356Z 13014G23KT 9SM -RA SCT008 BKN010 26/25 A2951 RMK AO2A SLP998 P0000 60000 T02620248 10268 20254 52012
RODN 142347Z AUTO 13018G23KT 3SM -RA BR SCT008 26/25 A2951 RMK AO2 SLP998
RODN 142337Z AUTO 14015G21KT 7SM -RA FEW009 26/25 A2951 RMK AO2 SLP998
RODN 142323Z 14016G22KT 8SM SCT009 BKN013 26/25 A2951 RMK AO2A SLP998
RODN 142316Z 14017G22KT 10SM -RA SCT009 BKN013 26/25 A2951 RMK AO2A SLP998
RODN 142306Z COR AUTO 15015G21KT 10SM -RA SCT007 BKN013 26/25 A2951 RMK AO2A SLP998 $ COR 2311
RODN 142256Z AUTO 14014G24KT 7SM -RA BKN007 26/25 A2951 RMK AO2 SLP998 P0000 T02600249 $
RODN 142246Z AUTO 15018G24KT 2 3/4SM -RA BR BKN007 26/25 A2950 RMK AO2 VIS 2 3/4V5 SLP995 $
RODN 142236Z AUTO 14016KT 4SM -RA BR SCT006 26/25 A2950 RMK AO2 SLP995 $
RODN 142226Z AUTO 16013G17KT 4SM -RA BR FEW002 BKN008 26/25 A2950 RMK AO2 CIG 007 RWY23 SLP995 $
RODN 142216Z AUTO 15011KT 3SM -RA BR SCT001 BKN009 OVC028 26/25 A2949 RMK AO2 CIG 008 RWY23 SLP991 $
RODN 142206Z AUTO 17012KT 5SM -RA BR SCT001 BKN009 OVC026 26/25 A2949 RMK AO2 VIS 2 1/2 RWY23 CIG 008V021 SLP991 $
RODN 142156Z AUTO 16013G18KT 1 3/4SM -RA BR SCT001 SCT008 OVC019 26/25 A2949 RMK AO2 PK WND 13026/34 VIS 1 3/4V2 1/2 VIS 7/8 RWY23 RAB14E43RAB45 CIG 001V019 CIG 009 RWY23 SLP991 P0000 T02560247 $
RODN 142145Z AUTO 17011KT 2 1/4SM -RA BR SCT001 OVC019 26/24 A2949 RMK AO2 VIS 3/4V2 1/4 VIS 1 5/8 RWY23 RAB14E43RAB45 CIG 017V028 CIG 008 RWY23 SLP991 $
RODN 142143Z AUTO 18012KT 2SM BR SCT001 OVC019 26/25 A2949 RMK AO2 VIS 3/4V2 VIS 1 1/2 RWY23 RAB14E43 CIG 017V028 CIG 008 RWY23 SLP991 $
RODN 142142Z AUTO 18011KT 1 3/8SM -RA BR SCT001 OVC017 26/25 A2949 RMK AO2 WSHFT 35 VIS 3/4V1 3/8 RAB14 CIG 017V028 CIG 008 RWY23 SLP991 $
RODN 142140Z AUTO 19010KT 1 1/8SM -RA BR SCT001 OVC017 26/25 A2949 RMK AO2 VIS 3/4V1 1/4 RAB14 CIG 009V028 CIG 008 RWY23 PRESRR SLP991 $
RODN 142133Z AUTO 23010KT 1SM R05/5000VP6000FT +RA BR SCT001 OVC028 26/24 A2947 RMK AO2 VIS 1V2 1/4 RAB14 CIG 009V028 CIG 008 RWY23 SLP984 $
RODN 142124Z AUTO 14010KT 2 1/4SM -RA BR SCT002 BKN009 26/24 A2948 RMK AO2 VIS 2 1/4V4 RAB14 CIG 009V035 SLP988 $
RODN 142114Z AUTO 16011G19KT 4SM -RA BR FEW002 SCT010 OVC035 26/24 A2948 RMK AO2 RAB14 SLP988 $
RODN 142106Z AUTO 16016KT 4SM BR SCT010 OVC028 26/24 A2948 RMK AO2 CIG 009V028 SLP988 $
RODN 142056Z AUTO 15012KT 7SM SCT009 BKN012 BKN024 OVC030 26/24 A2948 RMK AO2 PK WND 15041/1958 RAB00E32 CIG 009V026 SLP988 P0000 60000 T02560242 53000 $
RODN 142052Z AUTO 15014G18KT 8SM SCT009 OVC026 26/24 A2948 RMK AO2 RAB00E32 CIG 009V026 SLP988 $
RODN 142032Z AUTO 16014G23KT 8SM FEW001 BKN009 25/24 A2948 RMK AO2 RAB00E32 BKN V SCT SLP988 $
RODN 142030Z AUTO 17013G23KT 7SM -RA BR SCT001 BKN009 25/24 A2948 RMK AO2 RAB00 BKN V SCT SLP988 $
RODN 142020Z AUTO 17015G29KT 1 1/2SM +RA BR SCT001 BKN009 26/24 A2948 RMK AO2 VIS 1 1/2V2 1/4 RAB00 BKN V SCT PRESRR SLP988 $
RODN 142010Z AUTO 15021G32KT 2 1/4SM -RA BR SCT009 26/25 A2945 RMK AO2 VIS 2 1/4V3 RAB00 SLP977 $
RODN 142000Z AUTO 14028G41KT 3SM -RA BR BKN009 BKN013 OVC025 26/25 A2944 RMK AO2 RAB00 CIG 009V011 SLP974 $
RODN 141956Z AUTO 13022G29KT 6SM BR FEW002 BKN011 OVC025 26/25 A2945 RMK AO2 PK WND 12034/52 RAB1856E08RAB40E46 PRESFR SLP977 P0000 T02620246 $
RODN 141946Z AUTO 15015G21KT 6SM BR FEW002 BKN009 BKN014 OVC027 26/25 A2947 RMK AO2 RAB1856E08RAB40E46 CIG 009V011 SLP984 $
RODN 141940Z AUTO 15015G24KT 5SM -RA BR FEW002 BKN009 BKN015 26/25 A2947 RMK AO2 RAB1856E08RAB40 SLP984 $
RODN 141918Z AUTO 16015G19KT 10SM BKN009 OVC022 26/25 A2948 RMK AO2 RAB1856E08 CIG 009V019 SLP988 $
RODN 141908Z AUTO 15015G22KT 8SM SCT008 BKN019 26/25 A2947 RMK AO2 RAB1856E08 CIG 012 RWY23 SLP984 $
RODN 141857Z AUTO 13008KT 8SM -RA FEW009 FEW013 BKN019 BKN024 27/25 A2948 RMK AO2 RAB56 CIG 019V028 BKN019 V FEW SLP988 $
RODN 141856Z AUTO 14007KT 9SM FEW012 BKN024 BKN031 27/25 A2948 RMK AO2 RAE03DZB03E05RAB11E17 CIG 024V031 SLP988 P0000 T02670251 $
RODN 141847Z AUTO 14010KT 10SM FEW010 FEW014 FEW019 BKN028 27/25 A2947 RMK AO2 RAE03DZB03E05RAB11E17 CIG 028V036 BKN V SCT SLP984 $
RODN 141837Z AUTO 15008KT 10SM FEW011 SCT026 BKN036 27/25 A2947 RMK AO2 RAE03DZB03E05RAB11E17 SLP984 $
RODN 141827Z AUTO 13006KT 10SM SCT010 SCT019 BKN026 27/25 A2947 RMK AO2 RAE03DZB03E05RAB11E17 CIG 010V026 SLP984 $
RODN 141817Z AUTO 14009KT 7SM FEW001 SCT010 BKN020 OVC026 27/25 A2947 RMK AO2 RAE03DZB03E05RAB11E17 SLP984 $
RODN 141811Z AUTO 13010KT 7SM -RA FEW001 FEW008 FEW012 BKN020 BKN027 OVC038 27/25 A2947 RMK AO2 RAE03DZB03E05RAB11 CIG 017 RWY23 SLP984 $
RODN 141805Z AUTO 14007KT 9SM FEW002 FEW008 FEW012 BKN020 BKN027 BKN038 27/25 A2948 RMK AO2 RAE03DZB03E05 CIG 017 RWY23 SLP987 $
RODN 141756Z AUTO 13009KT 8SM RA FEW002 FEW012 BKN022 BKN038 27/25 A2948 RMK AO2 DZE03DZB07E10RAB10E20RAB52 CIG 022V038 BKN022 V FEW CIG 014 RWY23 SLP988 P0000 60000 T02690253 10280 20267 57018 $
RODN 141752Z AUTO 14011KT 10SM -RA FEW012 BKN022 BKN038 27/25 A2948 RMK AO2 DZE03DZB07E10RAB10E20RAB52 CIG 022V038 BKN022 V FEW CIG 014 RWY23 SLP988 $
RODN 141750Z AUTO 13010KT 10SM FEW012 SCT025 BKN038 27/25 A2948 RMK AO2 DZE03DZB07E10RAB10E20 SLP988 $
RODN 141730Z AUTO 12013KT 6SM M FEW002 SCT012 OVC022 27/25 A2948 RMK AO2 DZE03DZB07E10RAB10E20 CIG 014V022 CIG 011 RWY23 SLP988 $
RODN 141720Z AUTO 11011G20KT 8SM FEW002 BKN014 27/26 A2948 RMK AO2 DZE03DZB07E10RAB10E20 CIG 013 RWY23 SLP988 $
RODN 141707Z AUTO 09010KT 10SM -DZ FEW002 SCT008 BKN014 BKN020 27/25 A2948 RMK AO2 DZE03DZB07 CIG 010V014 SLP988 $
RODN 141703Z AUTO 09009KT 9SM FEW002 SCT010 BKN014 BKN020 27/25 A2949 RMK AO2 DZE03 CIG 010V014 SLP991 $
RODN 141656Z AUTO 12010KT 4SM -DZ BR FEW002 SCT008 BKN014 OVC020 27/25 A2949 RMK AO2 DZB30E40DZB54 SLP991 P0000 T02680252 $
RODN 141654Z AUTO 12010KT 5SM -DZ BR FEW002 SCT008 BKN014 OVC020 27/25 A2949 RMK AO2 DZB30E40DZB54 SLP991 $
RODN 141641Z AUTO 11009KT 7SM SCT009 BKN014 OVC023 27/25 A2950 RMK AO2 DZB30E40 CIG 012V018 CIG 013 RWY23 SLP994 $
RODN 141640Z AUTO 11009KT 7SM -DZ SCT009 BKN014 BKN020 BKN027 27/25 A2950 RMK AO2 DZB30E40 CIG 012V019 BKN014 V SCT CIG 013 RWY23 SLP994 $
RODN 141630Z AUTO 11014KT 9SM -DZ SCT014 BKN019 BKN027 28/25 A2950 RMK AO2 DZB30 CIG 019V027 BKN019 V SCT SLP994 $
RODN 141626Z AUTO 09008KT 10SM SCT014 SCT019 BKN027 28/25 A2950 RMK AO2 BKN V SCT SLP994 $
RODN 141616Z AUTO 10008KT 10SM SCT014 SCT019 SCT027 28/25 A2951 RMK AO2 SLP998 $
RODN 141556Z AUTO 10010KT 10SM SCT016 SCT021 BKN027 28/25 A2952 RMK AO2 SLP001 T02750251 $
RODN 141546Z AUTO 11009KT 10SM FEW011 SCT019 BKN027 27/25 A2952 RMK AO2 CIG 018V027 SLP001 $
RODN 141536Z AUTO 12010G16KT 10SM FEW011 BKN020 28/25 A2952 RMK AO2 SLP001 $
RODN 141526Z AUTO 10011G24KT 10SM SCT011 BKN017 28/26 A2952 RMK AO2 SLP001 $
RODN 141456Z AUTO 10013KT 10SM FEW013 28/25 A2953 RMK AO2 SLP004 60000 T02750253 403140274 58006 $
RODN 141436Z AUTO 10010G17KT 10SM FEW013 28/25 A2953 RMK AO2 SLP004 $
RODN 141426Z AUTO 10014G17KT 10SM BKN013 28/25 A2953 RMK AO2 CIG 013V034 SLP004 $
RODN 141416Z AUTO 10011G20KT 10SM SCT014 SCT034 28/26 A2954 RMK AO2 SLP008 $
RODN 141406Z AUTO 09015G20KT 10SM SCT012 BKN020 BKN025 28/26 A2954 RMK AO2 CIG 013V024 SLP008 $
RODN 141356Z AUTO 10015G21KT 10SM BKN014 BKN021 28/26 A2954 RMK AO2 RAE1258 CIG 014V020 BKN014 V SCT SLP008 P0000 T02750257 $
RODN 141348Z AUTO 10013G19KT 9SM SCT012 BKN020 27/26 A2954 RMK AO2 RAE1258 SLP008 $
RODN 141338Z AUTO 10011G17KT 10SM SCT012 BKN018 28/26 A2955 RMK AO2 RAE1258 CIG 018V023 BKN V SCT SLP011 $
RODN 141318Z AUTO 10009KT 10SM SCT010 BKN021 27/26 A2955 RMK AO2 RAE1258 CIG 016V021 SLP011 $
RODN 141308Z AUTO 10012KT 10SM SCT010 27/26 A2955 RMK AO2 RAE1258 SLP011 $
RODN 141258Z AUTO 10013KT 9SM SCT010 BKN023 27/26 A2955 RMK AO2 RAE58 CIG 011V023 SLP011 $
RODN 141256Z AUTO 09012KT 8SM -RA BKN011 BKN023 28/26 A2955 RMK AO2 RAB27E39RAB49 SLP011 P0000 T02750259 $
RODN 141249Z AUTO 08014KT 9SM +RA BKN011 BKN021 28/26 A2955 RMK AO2 RAB27E39RAB49 SLP011 $
RODN 141239Z AUTO 10012G18KT 10SM BKN011 28/26 A2955 RMK AO2 RAB27E39 BKN V OVC SLP011 $
RODN 141227Z AUTO 09010KT 10SM RA BKN013 OVC021 28/26 A2955 RMK AO2 RAB27 CIG 011 RWY23 SLP011 $
RODN 141156Z AUTO 08012KT 10SM BKN013 BKN024 28/25 A2955 RMK AO2 RAB1058E07 SLP011 P0000 60000 T02760252 10304 20275 53007 $
RODN 141147Z AUTO 08013G21KT 10SM BKN013 28/25 A2954 RMK AO2 RAB1058E07 SLP008 $
RODN 141127Z AUTO 09011G17KT 10SM FEW013 28/25 A2954 RMK AO2 RAB1058E07 SLP008 $
RODN 141117Z AUTO 09010KT 10SM SCT013 BKN020 28/25 A2954 RMK AO2 RAB1058E07 CIG 014V020 SLP008 $
RODN 141107Z AUTO 10014KT 10SM BKN014 BKN022 28/26 A2954 RMK AO2 RAB1058E07 SLP008 $
RODN 141058Z AUTO 08014KT 10SM -RA BKN014 BKN020 28/25 A2954 RMK AO2 RAB58 SLP008 $
RODN 141056Z AUTO 08014KT 10SM BKN014 BKN020 28/26 A2954 RMK AO2 SLP008 T02830255 $
RODN 141046Z AUTO 08014G20KT 10SM BKN014 28/25 A2954 RMK AO2 CIG 014V021 SLP008 $
RODN 141036Z AUTO 08016KT 10SM SCT015 SCT020 28/25 A2954 RMK AO2 SLP008 $
RODN 141026Z AUTO 08014G21KT 10SM SCT015 BKN021 28/25 A2954 RMK AO2 BKN V SCT SLP008 $
RODN 141016Z AUTO 09016KT 10SM FEW015 SCT022 28/25 A2954 RMK AO2 SLP008 $
RODN 141006Z AUTO 08016G21KT 10SM SCT017 BKN025 29/25 A2953 RMK AO2 BKN V SCT SLPNO $
RODN 140956Z AUTO 08011G22KT 10SM SCT022 29/25 A2953 RMK AO2 SLPNO T02850249 $
RODN 140856Z AUTO 08017G23KT 10SM SCT017 SCT025 BKN050 29/25 A2953 RMK AO2 SLPNO T02870247 57008 $
RODN 140836Z AUTO 08016G24KT 10SM SCT018 SCT023 BKN029 BKN050 29/26 A2953 RMK AO2 CIG 023V055 BKN029 V SCT SLPNO $
RODN 140826Z AUTO 08017KT 10SM SCT018 BKN023 30/26 A2953 RMK AO2 CIG 018V024 SLPNO $
RODN 140806Z AUTO 08015G22KT 10SM BKN016 BKN023 29/25 A2953 RMK AO2 CIG 016V021 SLPNO $
RODN 140756Z AUTO 07017G22KT 10SM BKN016 OVC026 29/26 A2953 RMK AO2 PK WND 09027/03 SLPNO T02910255 $